KBDG

Details ICAO KBDG
Name BLANDING MUNI
Region United States
Timezone America/Denver (UTC-7.0)
Plans Departing 0
Arriving 3
Stats Elevation 5,865 ft / 1,788 m (AMSL)
Location 37.583337° -109.483289°
Runways 1
Magnetic Variation 10.027° E
Sunrise 2017-12-15 14:27:11 UTC / 2017-12-15 07:27:11 Local
Sunset 2017-12-16 00:02:04 UTC / 2017-12-15 17:02:04 Local
Advertisement - Login to hide

Runways

ID Width Length Bearing (true) Bearing (mag) Surface Threshold Offset Overrun Length
17 75 ft / 23 m 5,793 ft / 1,766 m 180.03° 170.00° Asphalt 0 ft / 0 m 0 ft / 0 m
35 75 ft / 23 m 5,793 ft / 1,766 m 0.03° 350.00° Asphalt 0 ft / 0 m 0 ft / 0 m

Map

Weather


0- 5 10 15 20 25 30 35+ Temperature / ° C

Clouds and Precipitation
Forecast for 2017-12-16 00:00 UTC. Updated an hour ago

Ground ~20,000 ft ~40,000 ft Winds

METAR

KBDG 151955Z AUTO 17005KT 10SM 05/M15 A3033 RMK AO1 T00521150

TAF

Not found

Frequencies

Recorded 127.75 MHz AWOS 3
Unicom 122.80 MHz CTAF/UNICOM
Warning: Do not use this data for real-world aviation or navigation. No guarantee of current accuracy is given.